Terminal Aerodrome Forecast
Issued by NWS

Home | Current Version | Previous Version | Text Only | Print | Product List | Glossary On
Versions: 1 2 3 4 5 6 7 8 9 10 11 12 13
794
FTUS44 KJAN 211130
TAFGTR
TAF
KGTR 211130Z 2112/2212 36005KT 5SM -TSRA BR SCT008 BKN030CB OVC090
     FM211400 36008KT 5SM -SHRA BR BKN030 OVC050
     FM211600 13008KT P6SM FEW090 SCT250
     FM220700 19009KT 5SM -TSRA BKN025CB BKN130=

USA.gov is the U.S. government's official web portal to all federal, state and local government web resources and services.